Time;durP1;ratioP1;P1;durP2;ratioP2;P2;SDS_P1;SDS_P2;PMS_P1;PMS_P2;Temp;Humidity;BMP_temperature;BMP_pressure;BME280_temperature;BME280_humidity;BME280_pressure;Samples;Min_cycle;Max_cycle;Signal;HPM_P1;HPM_P2
2021/05/09 00:01:06;;;;;;;2.78;1.80;;;;;;;;;;5131792;27;20058;-70
2021/05/09 00:03:32;;;;;;;4.03;1.80;;;;;;;;;;5133713;27;20043;-70
2021/05/09 00:05:58;;;;;;;3.15;1.88;;;;;;;;;;5133705;27;20122;-70
2021/05/09 00:08:24;;;;;;;2.97;2.00;;;;;;;;;;5132779;27;20368;-70
2021/05/09 00:10:51;;;;;;;5.47;2.20;;;;;;;;;;5132576;27;20051;-70
2021/05/09 00:13:17;;;;;;;3.25;1.80;;;;;;;;;;5132397;27;20043;-70
2021/05/09 00:15:43;;;;;;;2.75;1.52;;;;;;;;;;5132329;27;20070;-71
2021/05/09 00:18:10;;;;;;;3.53;1.98;;;;;;;;;;5131413;27;20043;-70
2021/05/09 00:20:36;;;;;;;3.65;1.90;;;;;;;;;;5131821;27;20039;-70
2021/05/09 00:23:02;;;;;;;2.83;1.60;;;;;;;;;;5131395;27;20696;-70
2021/05/09 00:25:28;;;;;;;4.97;1.77;;;;;;;;;;5132011;27;20043;-70
2021/05/09 00:27:54;;;;;;;3.70;1.75;;;;;;;;;;5128531;27;20135;-70
2021/05/09 00:30:20;;;;;;;4.47;2.05;;;;;;;;;;5128957;27;20080;-70
2021/05/09 00:32:47;;;;;;;2.70;1.40;;;;;;;;;;5131499;27;20104;-70
2021/05/09 00:35:14;;;;;;;2.50;1.55;;;;;;;;;;5131949;27;20047;-70
2021/05/09 00:37:40;;;;;;;4.18;2.58;;;;;;;;;;5131862;27;20510;-70
2021/05/09 00:40:07;;;;;;;4.90;2.65;;;;;;;;;;5132079;27;20544;-70
2021/05/09 00:42:33;;;;;;;4.00;2.83;;;;;;;;;;5131484;27;20043;-70
2021/05/09 00:44:59;;;;;;;4.03;2.70;;;;;;;;;;5131726;27;20047;-70
2021/05/09 00:47:25;;;;;;;5.25;2.55;;;;;;;;;;5132167;27;20050;-70
2021/05/09 00:49:52;;;;;;;4.95;3.00;;;;;;;;;;5129958;27;20078;-70
2021/05/09 00:52:18;;;;;;;5.93;3.22;;;;;;;;;;5131513;27;20050;-70
2021/05/09 00:54:46;;;;;;;3.72;2.25;;;;;;;;;;5131876;28;20043;-70
2021/05/09 00:57:13;;;;;;;3.70;2.03;;;;;;;;;;5132387;28;20050;-70
2021/05/09 00:59:40;;;;;;;4.28;2.50;;;;;;;;;;5132167;28;20051;-70
2021/05/09 01:02:07;;;;;;;3.40;2.20;;;;;;;;;;5130770;28;20055;-70
2021/05/09 01:04:33;;;;;;;3.17;2.28;;;;;;;;;;5134721;27;20045;-70
2021/05/09 01:07:00;;;;;;;3.47;2.15;;;;;;;;;;5137124;27;20108;-71
2021/05/09 01:09:26;;;;;;;3.97;2.33;;;;;;;;;;5136813;27;20050;-70
2021/05/09 01:11:52;;;;;;;3.25;1.90;;;;;;;;;;5136605;27;20050;-70
2021/05/09 01:14:18;;;;;;;4.28;1.95;;;;;;;;;;5137064;27;20039;-70
2021/05/09 01:16:45;;;;;;;2.80;1.90;;;;;;;;;;5130790;27;20050;-73
2021/05/09 01:19:11;;;;;;;2.97;1.80;;;;;;;;;;5136852;27;20057;-71
2021/05/09 01:21:38;;;;;;;4.35;2.10;;;;;;;;;;5136245;27;20448;-71
2021/05/09 01:24:05;;;;;;;3.50;2.00;;;;;;;;;;5136406;27;20043;-71
2021/05/09 01:26:31;;;;;;;3.92;1.90;;;;;;;;;;5136651;27;20047;-71
2021/05/09 01:28:57;;;;;;;3.53;2.10;;;;;;;;;;5134735;27;20514;-71
2021/05/09 01:31:23;;;;;;;3.78;2.03;;;;;;;;;;5132840;27;20047;-71
2021/05/09 01:33:48;;;;;;;3.88;2.10;;;;;;;;;;5137597;27;20449;-71
2021/05/09 01:36:15;;;;;;;3.97;2.13;;;;;;;;;;5136898;27;20120;-71
2021/05/09 01:38:41;;;;;;;4.47;2.03;;;;;;;;;;5134671;27;20050;-70
2021/05/09 01:41:07;;;;;;;4.13;1.70;;;;;;;;;;5134708;27;20051;-70
2021/05/09 01:43:34;;;;;;;2.35;1.48;;;;;;;;;;5136562;27;20136;-70
2021/05/09 01:46:00;;;;;;;2.50;1.60;;;;;;;;;;5135801;27;20058;-71
2021/05/09 01:48:26;;;;;;;2.63;1.58;;;;;;;;;;5135219;27;20035;-71
2021/05/09 01:50:52;;;;;;;2.95;1.40;;;;;;;;;;5135713;27;20123;-71
2021/05/09 01:53:18;;;;;;;6.00;1.77;;;;;;;;;;5134882;27;20067;-71
2021/05/09 01:55:45;;;;;;;4.32;2.13;;;;;;;;;;5136555;27;20103;-71
2021/05/09 01:58:11;;;;;;;4.38;2.40;;;;;;;;;;5136620;27;20043;-71
2021/05/09 02:00:37;;;;;;;2.20;1.50;;;;;;;;;;5135151;27;20055;-71
2021/05/09 02:03:03;;;;;;;3.33;1.73;;;;;;;;;;5135687;27;20047;-70
2021/05/09 02:05:29;;;;;;;3.80;1.75;;;;;;;;;;5136203;27;20043;-70
2021/05/09 02:07:55;;;;;;;2.80;1.73;;;;;;;;;;5136536;27;20079;-70
2021/05/09 02:10:21;;;;;;;3.80;1.80;;;;;;;;;;5136089;27;20051;-70
2021/05/09 02:12:48;;;;;;;3.25;1.80;;;;;;;;;;5135346;27;20043;-71
2021/05/09 02:15:14;;;;;;;3.03;1.52;;;;;;;;;;5135524;27;20050;-70
2021/05/09 02:17:42;;;;;;;2.45;1.55;;;;;;;;;;5136098;27;20051;-71
2021/05/09 02:20:10;;;;;;;3.65;1.83;;;;;;;;;;5135816;27;20058;-71
2021/05/09 02:22:36;;;;;;;3.28;1.50;;;;;;;;;;5136614;27;20047;-71
2021/05/09 02:25:04;;;;;;;2.63;1.70;;;;;;;;;;5135831;27;20071;-70
2021/05/09 02:27:30;;;;;;;3.17;1.60;;;;;;;;;;5136700;27;20090;-71
2021/05/09 02:29:56;;;;;;;3.33;1.67;;;;;;;;;;5134077;27;20134;-70
2021/05/09 02:32:22;;;;;;;3.00;1.52;;;;;;;;;;5134692;27;20039;-70
2021/05/09 02:34:48;;;;;;;4.20;1.65;;;;;;;;;;5136214;27;20488;-70
2021/05/09 02:37:14;;;;;;;2.85;1.50;;;;;;;;;;5135945;27;20396;-70
2021/05/09 02:39:40;;;;;;;3.50;1.92;;;;;;;;;;5135429;27;20054;-71
2021/05/09 02:42:06;;;;;;;2.70;1.50;;;;;;;;;;5135334;27;20039;-70
2021/05/09 02:44:33;;;;;;;4.43;1.60;;;;;;;;;;5135551;27;20419;-70
2021/05/09 02:47:00;;;;;;;2.42;1.40;;;;;;;;;;5135581;27;20468;-71
2021/05/09 02:49:26;;;;;;;2.55;1.63;;;;;;;;;;5135259;27;20043;-71
2021/05/09 02:51:52;;;;;;;2.53;1.77;;;;;;;;;;5135850;27;20055;-71
2021/05/09 02:54:18;;;;;;;4.65;1.92;;;;;;;;;;5135484;27;20052;-70
2021/05/09 02:56:43;;;;;;;2.97;1.58;;;;;;;;;;5135888;27;20043;-70
2021/05/09 02:59:09;;;;;;;3.20;1.23;;;;;;;;;;5134863;27;20047;-71
2021/05/09 03:01:35;;;;;;;2.63;1.50;;;;;;;;;;5134265;27;20062;-70
2021/05/09 03:04:03;;;;;;;2.92;1.45;;;;;;;;;;5134817;27;20055;-70
2021/05/09 03:06:29;;;;;;;2.85;1.65;;;;;;;;;;5134758;27;20054;-71
2021/05/09 03:08:54;;;;;;;2.45;1.35;;;;;;;;;;5135012;27;20050;-70
2021/05/09 03:11:21;;;;;;;2.72;1.70;;;;;;;;;;5134482;27;20077;-70
2021/05/09 03:13:47;;;;;;;2.55;1.48;;;;;;;;;;5134678;27;20043;-70
2021/05/09 03:16:13;;;;;;;2.55;1.90;;;;;;;;;;5134734;27;20129;-70
2021/05/09 03:18:39;;;;;;;3.10;1.70;;;;;;;;;;5134192;27;20039;-70
2021/05/09 03:21:06;;;;;;;2.90;1.58;;;;;;;;;;5134073;27;20058;-71
2021/05/09 03:23:31;;;;;;;2.75;1.42;;;;;;;;;;5135208;27;20043;-71
2021/05/09 03:25:57;;;;;;;3.60;1.63;;;;;;;;;;5134212;27;20054;-70
2021/05/09 03:28:23;;;;;;;3.72;1.55;;;;;;;;;;5132874;27;20399;-71
2021/05/09 03:30:49;;;;;;;4.20;2.05;;;;;;;;;;5130327;27;20119;-70
2021/05/09 03:33:15;;;;;;;3.00;1.83;;;;;;;;;;5133100;27;20047;-70
2021/05/09 03:35:41;;;;;;;3.72;1.45;;;;;;;;;;5134241;27;20043;-70
2021/05/09 03:38:08;;;;;;;2.63;1.48;;;;;;;;;;5133736;27;20047;-71
2021/05/09 03:40:34;;;;;;;2.88;1.50;;;;;;;;;;5133162;27;20481;-70
2021/05/09 03:43:00;;;;;;;6.35;1.60;;;;;;;;;;5133762;27;20048;-70
2021/05/09 03:45:26;;;;;;;3.05;1.58;;;;;;;;;;5133540;27;20058;-70
2021/05/09 03:47:52;;;;;;;3.67;1.80;;;;;;;;;;5133203;27;20050;-70
2021/05/09 03:50:18;;;;;;;3.45;1.70;;;;;;;;;;5132935;27;20054;-70
2021/05/09 03:52:44;;;;;;;2.03;1.15;;;;;;;;;;5132745;27;20039;-70
2021/05/09 03:55:11;;;;;;;2.35;1.40;;;;;;;;;;5133311;27;20401;-70
2021/05/09 03:57:37;;;;;;;2.50;1.20;;;;;;;;;;5133694;27;20051;-70
2021/05/09 04:00:04;;;;;;;2.38;1.38;;;;;;;;;;5133302;27;20043;-70
2021/05/09 04:02:30;;;;;;;5.60;2.53;;;;;;;;;;5132525;27;20096;-70
2021/05/09 04:04:56;;;;;;;2.15;1.30;;;;;;;;;;5132830;27;20051;-70
2021/05/09 04:07:22;;;;;;;3.08;1.60;;;;;;;;;;5133341;27;20061;-70
2021/05/09 04:09:48;;;;;;;4.45;1.88;;;;;;;;;;5132706;27;20051;-70
2021/05/09 04:12:15;;;;;;;4.65;1.30;;;;;;;;;;5132485;27;20046;-70
2021/05/09 04:14:41;;;;;;;3.10;1.60;;;;;;;;;;5132933;27;20039;-71
2021/05/09 04:17:06;;;;;;;2.60;1.42;;;;;;;;;;5133569;27;20387;-70
2021/05/09 04:19:32;;;;;;;2.97;1.52;;;;;;;;;;5132420;27;20058;-71
2021/05/09 04:21:58;;;;;;;3.83;2.20;;;;;;;;;;5133266;27;20043;-70
2021/05/09 04:24:24;;;;;;;2.13;1.30;;;;;;;;;;5133645;27;20063;-70
2021/05/09 04:26:50;;;;;;;4.22;1.58;;;;;;;;;;5133373;27;20063;-71
2021/05/09 04:29:17;;;;;;;2.35;1.30;;;;;;;;;;5131930;27;20054;-70
2021/05/09 04:31:43;;;;;;;2.55;1.30;;;;;;;;;;5131413;27;20042;-70
2021/05/09 04:34:09;;;;;;;1.90;1.20;;;;;;;;;;5132537;27;20043;-70
2021/05/09 04:36:35;;;;;;;2.55;1.40;;;;;;;;;;5132866;27;20051;-70
2021/05/09 04:39:01;;;;;;;2.60;1.75;;;;;;;;;;5131842;27;20419;-70
2021/05/09 04:41:27;;;;;;;2.42;1.40;;;;;;;;;;5132514;27;20043;-70
2021/05/09 04:43:53;;;;;;;2.78;1.50;;;;;;;;;;5132720;27;20035;-71
2021/05/09 04:46:20;;;;;;;2.83;1.50;;;;;;;;;;5132962;27;20364;-70
2021/05/09 04:48:46;;;;;;;4.18;1.40;;;;;;;;;;5132921;27;20043;-70
2021/05/09 04:51:12;;;;;;;3.08;1.05;;;;;;;;;;5132575;27;20047;-70
2021/05/09 04:53:38;;;;;;;4.75;1.60;;;;;;;;;;5133227;28;20043;-70
2021/05/09 04:56:06;;;;;;;1.60;1.00;;;;;;;;;;5132641;28;20047;-70
2021/05/09 04:58:33;;;;;;;2.55;1.60;;;;;;;;;;5132912;28;20084;-71
2021/05/09 05:01:01;;;;;;;2.97;1.60;;;;;;;;;;5127763;28;20062;-70
2021/05/09 05:03:28;;;;;;;2.85;1.55;;;;;;;;;;5132410;28;20050;-70
2021/05/09 05:05:54;;;;;;;2.45;1.30;;;;;;;;;;5132613;28;20055;-70
2021/05/09 05:08:20;;;;;;;3.30;1.50;;;;;;;;;;5132674;28;20223;-70
2021/05/09 05:10:46;;;;;;;3.17;1.88;;;;;;;;;;5131864;28;20070;-70
2021/05/09 05:13:19;;;;;;;2.85;1.63;;;;;;;;;;5132237;28;20602;-70
2021/05/09 05:15:46;;;;;;;2.67;1.60;;;;;;;;;;5132554;28;20482;-70
2021/05/09 05:18:12;;;;;;;5.07;1.85;;;;;;;;;;5132854;27;20051;-70
2021/05/09 05:20:39;;;;;;;3.47;1.75;;;;;;;;;;5132995;27;20095;-70
2021/05/09 05:23:05;;;;;;;3.45;1.42;;;;;;;;;;5132209;28;20043;-70
2021/05/09 05:25:31;;;;;;;5.60;2.92;;;;;;;;;;5131930;28;20058;-71
2021/05/09 05:27:57;;;;;;;3.22;2.00;;;;;;;;;;5132659;28;20047;-70
2021/05/09 05:30:23;;;;;;;3.30;1.83;;;;;;;;;;5132704;28;20074;-71
2021/05/09 05:32:49;;;;;;;2.75;1.50;;;;;;;;;;5130449;28;20458;-71
2021/05/09 05:35:15;;;;;;;4.20;1.95;;;;;;;;;;5130883;28;20096;-70
2021/05/09 05:37:42;;;;;;;5.45;2.00;;;;;;;;;;5132913;28;20384;-70
2021/05/09 05:40:09;;;;;;;3.17;1.60;;;;;;;;;;5131685;28;20055;-70
2021/05/09 05:42:35;;;;;;;1.92;1.40;;;;;;;;;;5131894;28;20463;-70
2021/05/09 05:45:01;;;;;;;4.63;1.95;;;;;;;;;;5132506;28;20095;-70
2021/05/09 05:47:27;;;;;;;4.22;1.85;;;;;;;;;;5131922;28;20395;-70
2021/05/09 05:49:55;;;;;;;4.85;2.50;;;;;;;;;;5132674;27;20054;-70
2021/05/09 05:52:21;;;;;;;4.25;2.50;;;;;;;;;;5135647;27;20126;-71
2021/05/09 05:54:48;;;;;;;3.72;2.15;;;;;;;;;;5135354;27;20498;-70
2021/05/09 05:57:14;;;;;;;5.40;1.90;;;;;;;;;;5136468;27;20046;-70
2021/05/09 05:59:40;;;;;;;4.10;1.70;;;;;;;;;;5136132;27;20047;-70
2021/05/09 06:02:06;;;;;;;2.85;1.50;;;;;;;;;;5135360;27;20399;-70
2021/05/09 06:04:32;;;;;;;2.65;1.67;;;;;;;;;;5132255;27;20047;-70
2021/05/09 06:06:58;;;;;;;2.83;1.80;;;;;;;;;;5135840;27;20051;-70
2021/05/09 06:09:24;;;;;;;3.47;1.80;;;;;;;;;;5135003;27;20043;-71
2021/05/09 06:11:51;;;;;;;5.82;1.73;;;;;;;;;;5134860;27;20100;-68
2021/05/09 06:14:17;;;;;;;5.40;1.70;;;;;;;;;;5135807;27;20437;-69
2021/05/09 06:16:43;;;;;;;2.60;1.73;;;;;;;;;;5134576;27;20096;-68
2021/05/09 06:19:09;;;;;;;2.92;1.65;;;;;;;;;;5135091;27;20047;-69
2021/05/09 06:21:35;;;;;;;3.60;1.52;;;;;;;;;;5130388;27;20047;-69
2021/05/09 06:24:01;;;;;;;3.63;2.00;;;;;;;;;;5135255;27;20096;-69
2021/05/09 06:26:27;;;;;;;3.83;1.80;;;;;;;;;;5135253;27;20399;-69
2021/05/09 06:28:53;;;;;;;2.40;1.42;;;;;;;;;;5135452;27;20407;-69
2021/05/09 06:31:19;;;;;;;3.75;1.45;;;;;;;;;;5134748;27;20467;-69
2021/05/09 06:33:45;;;;;;;2.97;1.63;;;;;;;;;;5131088;27;20062;-69
2021/05/09 06:36:11;;;;;;;2.88;1.33;;;;;;;;;;5132057;27;20062;-69
2021/05/09 06:38:38;;;;;;;3.88;1.85;;;;;;;;;;5133787;27;20934;-69
2021/05/09 06:41:05;;;;;;;3.00;1.75;;;;;;;;;;5133133;27;20051;-69
2021/05/09 06:43:31;;;;;;;2.40;1.20;;;;;;;;;;5134502;27;20437;-69
2021/05/09 06:46:00;;;;;;;3.13;1.42;;;;;;;;;;5135050;27;20039;-69
2021/05/09 06:48:26;;;;;;;5.20;1.80;;;;;;;;;;5134989;27;20174;-69
2021/05/09 06:50:52;;;;;;;2.65;1.25;;;;;;;;;;5134364;27;20078;-69
2021/05/09 06:53:18;;;;;;;2.25;1.45;;;;;;;;;;5134537;27;20499;-69
2021/05/09 06:55:45;;;;;;;1.85;1.10;;;;;;;;;;5133963;27;20120;-69
2021/05/09 06:58:12;;;;;;;2.55;1.30;;;;;;;;;;5133952;27;20047;-70
2021/05/09 07:00:38;;;;;;;2.92;1.30;;;;;;;;;;5133531;27;20122;-70
2021/05/09 07:03:05;;;;;;;2.75;1.10;;;;;;;;;;5133121;27;20061;-70
2021/05/09 07:05:31;;;;;;;1.58;0.98;;;;;;;;;;5130015;27;20088;-70
2021/05/09 07:07:58;;;;;;;1.63;1.08;;;;;;;;;;5133019;27;20047;-69
2021/05/09 07:10:26;;;;;;;1.17;0.90;;;;;;;;;;5134266;27;20050;-70
2021/05/09 07:12:54;;;;;;;2.40;1.08;;;;;;;;;;5134083;27;20082;-70
2021/05/09 07:15:25;;;;;;;2.28;1.10;;;;;;;;;;5126693;27;20087;-70
2021/05/09 07:17:57;;;;;;;3.10;1.15;;;;;;;;;;5134470;27;20407;-70
2021/05/09 07:20:24;;;;;;;3.70;1.00;;;;;;;;;;5134311;27;20075;-70
2021/05/09 07:22:53;;;;;;;2.90;1.10;;;;;;;;;;5134319;27;20084;-70
2021/05/09 07:25:20;;;;;;;1.65;0.90;;;;;;;;;;5134425;27;20062;-70
2021/05/09 07:27:46;;;;;;;3.13;1.10;;;;;;;;;;5134493;27;20120;-69
2021/05/09 07:30:12;;;;;;;2.50;1.00;;;;;;;;;;5134121;27;20047;-70
2021/05/09 07:32:38;;;;;;;2.58;1.00;;;;;;;;;;5133115;27;20053;-70
2021/05/09 07:35:05;;;;;;;1.33;0.90;;;;;;;;;;5132799;27;20043;-71
2021/05/09 07:37:32;;;;;;;2.80;0.90;;;;;;;;;;5133834;27;20050;-71
2021/05/09 07:39:58;;;;;;;1.35;0.93;;;;;;;;;;5133930;27;20107;-71
2021/05/09 07:42:24;;;;;;;3.50;1.08;;;;;;;;;;5133300;27;20499;-71
2021/05/09 07:44:54;;;;;;;1.00;0.80;;;;;;;;;;5134884;27;20043;-71
2021/05/09 07:47:20;;;;;;;1.58;0.90;;;;;;;;;;5133809;27;20141;-71
2021/05/09 07:49:46;;;;;;;2.80;1.02;;;;;;;;;;5135044;27;20082;-69
2021/05/09 07:52:12;;;;;;;2.33;1.13;;;;;;;;;;5134700;27;20051;-71
2021/05/09 07:54:39;;;;;;;2.13;1.20;;;;;;;;;;5135829;27;20039;-71
2021/05/09 07:57:05;;;;;;;3.13;1.17;;;;;;;;;;5135601;27;20055;-70
2021/05/09 07:59:32;;;;;;;3.13;0.90;;;;;;;;;;5138143;27;20043;-70
2021/05/09 08:01:58;;;;;;;1.33;0.80;;;;;;;;;;5134191;27;20055;-72
2021/05/09 08:04:24;;;;;;;2.47;1.25;;;;;;;;;;5127369;27;20047;-71
2021/05/09 08:06:50;;;;;;;2.90;1.02;;;;;;;;;;5130364;27;20142;-70
2021/05/09 08:09:16;;;;;;;4.07;1.08;;;;;;;;;;5134339;27;20122;-73
2021/05/09 08:11:44;;;;;;;3.42;1.30;;;;;;;;;;5133878;27;20119;-71
2021/05/09 08:14:10;;;;;;;2.80;1.17;;;;;;;;;;5133417;27;20043;-70
2021/05/09 08:16:36;;;;;;;1.27;0.77;;;;;;;;;;5131027;27;20054;-72
2021/05/09 08:19:02;;;;;;;3.65;1.08;;;;;;;;;;5122449;27;20051;-71
2021/05/09 08:21:28;;;;;;;1.40;0.90;;;;;;;;;;5132272;27;20051;-72
2021/05/09 08:23:54;;;;;;;2.70;1.02;;;;;;;;;;5151119;27;20058;-70
2021/05/09 08:26:21;;;;;;;2.42;0.73;;;;;;;;;;5133691;27;20078;-71
2021/05/09 08:28:48;;;;;;;2.47;1.05;;;;;;;;;;5134529;27;20069;-72
2021/05/09 08:31:16;;;;;;;6.97;1.23;;;;;;;;;;5133495;27;20082;-70
2021/05/09 08:33:42;;;;;;;2.53;0.80;;;;;;;;;;5134915;27;20126;-71
2021/05/09 08:36:08;;;;;;;1.58;0.80;;;;;;;;;;5132239;27;20499;-70
2021/05/09 08:38:35;;;;;;;1.63;0.80;;;;;;;;;;5133761;27;20407;-70
2021/05/09 08:41:01;;;;;;;1.75;0.98;;;;;;;;;;5134559;27;20058;-71
2021/05/09 08:43:27;;;;;;;0.90;0.68;;;;;;;;;;5134863;27;20045;-70
2021/05/09 08:45:53;;;;;;;6.20;1.48;;;;;;;;;;5134645;27;20055;-70
2021/05/09 08:48:23;;;;;;;5.38;0.90;;;;;;;;;;5134944;27;20348;-72
2021/05/09 08:50:49;;;;;;;1.48;0.75;;;;;;;;;;5133949;27;20134;-71
2021/05/09 08:53:16;;;;;;;1.45;0.88;;;;;;;;;;5134641;27;20047;-71
2021/05/09 08:55:42;;;;;;;3.90;1.52;;;;;;;;;;5134119;28;20043;-71
2021/05/09 08:58:09;;;;;;;1.90;0.80;;;;;;;;;;5135062;27;20047;-71
2021/05/09 09:00:35;;;;;;;1.13;0.85;;;;;;;;;;5134115;27;20095;-71
2021/05/09 09:03:03;;;;;;;2.95;0.73;;;;;;;;;;5146549;27;20047;-71
2021/05/09 09:05:35;;;;;;;1.17;0.70;;;;;;;;;;5135097;28;20131;-70
2021/05/09 09:08:01;;;;;;;2.05;0.80;;;;;;;;;;5134321;28;20048;-71
2021/05/09 09:10:31;;;;;;;1.73;0.77;;;;;;;;;;5133622;28;20126;-71
2021/05/09 09:13:00;;;;;;;3.47;0.80;;;;;;;;;;5132575;28;20466;-71
2021/05/09 09:15:46;;;;;;;1.25;0.70;;;;;;;;;;5133413;28;20490;-71
2021/05/09 09:18:33;;;;;;;2.45;0.95;;;;;;;;;;5133025;28;20043;-71
2021/05/09 09:21:18;;;;;;;2.00;0.88;;;;;;;;;;5131968;28;20667;-72
2021/05/09 09:23:46;;;;;;;2.25;0.75;;;;;;;;;;5134074;28;20050;-71
2021/05/09 09:26:26;;;;;;;1.80;0.88;;;;;;;;;;5136521;27;20460;-72
2021/05/09 09:28:52;;;;;;;1.15;0.68;;;;;;;;;;5138491;27;20161;-72
2021/05/09 09:31:34;;;;;;;1.67;0.90;;;;;;;;;;5137091;27;20426;-73
2021/05/09 09:34:01;;;;;;;2.75;1.00;;;;;;;;;;5138414;27;20047;-70
2021/05/09 09:36:27;;;;;;;1.73;0.80;;;;;;;;;;5134715;27;20575;-71
2021/05/09 09:38:53;;;;;;;2.88;0.80;;;;;;;;;;5135092;27;20082;-72
2021/05/09 09:41:20;;;;;;;1.35;0.60;;;;;;;;;;5133060;27;20387;-70
2021/05/09 09:44:01;;;;;;;2.30;0.85;;;;;;;;;;5132340;27;20100;-70
2021/05/09 09:46:29;;;;;;;1.33;0.70;;;;;;;;;;5133226;27;20043;-70
2021/05/09 09:48:55;;;;;;;0.73;0.60;;;;;;;;;;5135006;27;20051;-71
2021/05/09 09:51:23;;;;;;;3.65;1.80;;;;;;;;;;5134755;27;20049;-72
2021/05/09 09:53:49;;;;;;;3.88;1.30;;;;;;;;;;5138360;27;20047;-71
2021/05/09 09:56:17;;;;;;;0.90;0.68;;;;;;;;;;5147079;27;20091;-72
2021/05/09 09:58:45;;;;;;;1.10;0.63;;;;;;;;;;5144385;27;20051;-71
2021/05/09 10:01:13;;;;;;;2.13;0.65;;;;;;;;;;5141926;27;20468;-72
2021/05/09 10:03:39;;;;;;;2.75;0.65;;;;;;;;;;5145259;27;20035;-70
2021/05/09 10:06:06;;;;;;;2.17;0.95;;;;;;;;;;5145470;27;20092;-71
2021/05/09 10:08:34;;;;;;;1.27;0.80;;;;;;;;;;5146639;27;20722;-71
2021/05/09 10:11:01;;;;;;;1.85;0.65;;;;;;;;;;5143316;27;20046;-71
2021/05/09 10:13:27;;;;;;;2.13;0.90;;;;;;;;;;5144386;27;20038;-71
2021/05/09 10:15:54;;;;;;;1.70;0.75;;;;;;;;;;5143700;27;20065;-70
2021/05/09 10:18:20;;;;;;;1.67;1.00;;;;;;;;;;5146965;27;20558;-71
2021/05/09 10:20:47;;;;;;;1.50;1.00;;;;;;;;;;5143248;27;20048;-71
2021/05/09 10:23:13;;;;;;;1.10;0.77;;;;;;;;;;5141745;27;20449;-69
2021/05/09 10:25:44;;;;;;;2.35;1.20;;;;;;;;;;5140258;27;20039;-70
2021/05/09 10:28:11;;;;;;;1.55;0.68;;;;;;;;;;5136348;27;20476;-70
2021/05/09 10:30:43;;;;;;;2.92;1.40;;;;;;;;;;5141378;27;20047;-70
2021/05/09 10:33:09;;;;;;;4.13;1.00;;;;;;;;;;5140423;27;20046;-71
2021/05/09 10:35:36;;;;;;;2.20;0.73;;;;;;;;;;5137674;27;20047;-73
2021/05/09 10:38:04;;;;;;;4.38;1.10;;;;;;;;;;5131308;27;20074;-70
2021/05/09 10:40:32;;;;;;;2.22;1.17;;;;;;;;;;5133928;27;20100;-69
2021/05/09 10:43:37;;;;;;;1.05;0.80;;;;;;;;;;5135482;27;20043;-70
2021/05/09 10:46:05;;;;;;;1.90;1.10;;;;;;;;;;5136178;27;20051;-70
2021/05/09 10:48:33;;;;;;;2.20;1.30;;;;;;;;;;5135871;27;20066;-70
2021/05/09 10:51:30;;;;;;;1.50;1.00;;;;;;;;;;5135745;27;20043;-69
2021/05/09 10:53:57;;;;;;;3.60;0.80;;;;;;;;;;5115444;28;20048;-69
2021/05/09 10:56:33;;;;;;;1.92;0.80;;;;;;;;;;5125037;27;20039;-70
2021/05/09 10:58:59;;;;;;;1.13;0.63;;;;;;;;;;5136142;27;20096;-70
2021/05/09 11:01:28;;;;;;;2.33;0.90;;;;;;;;;;5135148;27;20079;-71
2021/05/09 11:03:56;;;;;;;3.75;1.02;;;;;;;;;;5135723;27;20058;-69
2021/05/09 11:06:46;;;;;;;2.05;1.05;;;;;;;;;;5136022;27;20039;-71
2021/05/09 11:09:14;;;;;;;2.25;0.95;;;;;;;;;;5136695;27;20058;-71
2021/05/09 11:12:05;;;;;;;2.03;0.82;;;;;;;;;;5134856;27;20741;-70
2021/05/09 11:14:33;;;;;;;1.50;0.70;;;;;;;;;;5136557;27;20449;-72
2021/05/09 11:17:06;;;;;;;2.80;0.90;;;;;;;;;;5136492;27;20051;-72
2021/05/09 11:19:40;;;;;;;3.50;0.90;;;;;;;;;;5130936;27;20490;-69
2021/05/09 11:22:07;;;;;;;1.52;0.80;;;;;;;;;;5135513;27;20479;-69
2021/05/09 11:24:34;;;;;;;1.30;0.77;;;;;;;;;;5135392;27;20039;-70
2021/05/09 11:27:05;;;;;;;1.52;0.70;;;;;;;;;;5135383;27;20112;-70
2021/05/09 11:29:31;;;;;;;2.20;0.98;;;;;;;;;;5135857;27;20047;-70
2021/05/09 11:31:59;;;;;;;1.00;0.70;;;;;;;;;;5135477;27;20043;-71
2021/05/09 11:34:27;;;;;;;1.23;0.80;;;;;;;;;;5135474;27;20054;-72
2021/05/09 11:36:54;;;;;;;3.30;0.98;;;;;;;;;;5135614;27;20047;-71
2021/05/09 11:39:21;;;;;;;2.83;0.95;;;;;;;;;;5130951;27;20054;-70
2021/05/09 11:41:49;;;;;;;3.97;0.90;;;;;;;;;;5127850;27;20054;-69
2021/05/09 11:44:15;;;;;;;1.58;0.75;;;;;;;;;;5135198;27;20062;-69
2021/05/09 11:46:41;;;;;;;1.73;0.80;;;;;;;;;;5134902;27;20051;-69
2021/05/09 11:49:17;;;;;;;1.65;1.10;;;;;;;;;;5134477;27;20091;-69
2021/05/09 11:51:55;;;;;;;1.20;0.90;;;;;;;;;;5134625;27;20042;-69
2021/05/09 11:54:22;;;;;;;1.63;0.70;;;;;;;;;;5134953;27;20043;-69
2021/05/09 11:56:53;;;;;;;1.35;0.70;;;;;;;;;;5131960;27;20059;-69
2021/05/09 11:59:29;;;;;;;1.13;0.70;;;;;;;;;;5134611;27;20046;-71
2021/05/09 12:01:55;;;;;;;1.10;0.60;;;;;;;;;;5135220;27;20126;-72
2021/05/09 12:04:21;;;;;;;2.35;0.60;;;;;;;;;;5134652;27;20039;-69
2021/05/09 12:06:47;;;;;;;1.75;0.73;;;;;;;;;;5134090;27;20050;-70
2021/05/09 12:09:14;;;;;;;1.38;0.75;;;;;;;;;;5134924;27;20043;-70
2021/05/09 12:11:40;;;;;;;1.63;0.90;;;;;;;;;;5134577;27;20046;-70
2021/05/09 12:14:06;;;;;;;1.45;0.60;;;;;;;;;;5134754;27;20043;-69
2021/05/09 12:16:41;;;;;;;1.50;0.70;;;;;;;;;;5134458;27;20139;-69
2021/05/09 12:19:07;;;;;;;1.80;0.77;;;;;;;;;;5134655;27;20424;-69
2021/05/09 12:21:33;;;;;;;0.88;0.50;;;;;;;;;;5134208;27;20051;-69
2021/05/09 12:24:02;;;;;;;1.92;0.70;;;;;;;;;;5135159;27;20461;-71
2021/05/09 12:26:29;;;;;;;4.22;0.60;;;;;;;;;;5134243;27;20108;-70
2021/05/09 12:28:55;;;;;;;0.50;0.50;;;;;;;;;;5134205;27;20039;-69
2021/05/09 12:31:21;;;;;;;1.52;0.60;;;;;;;;;;5130894;27;20445;-70
2021/05/09 12:33:47;;;;;;;0.85;0.60;;;;;;;;;;5134407;27;20055;-70
2021/05/09 12:36:16;;;;;;;0.70;0.40;;;;;;;;;;5133952;27;20096;-68
2021/05/09 12:38:43;;;;;;;0.98;0.60;;;;;;;;;;5133877;27;20379;-70
2021/05/09 12:41:10;;;;;;;1.38;0.73;;;;;;;;;;5129809;27;20047;-69
2021/05/09 12:43:44;;;;;;;1.77;0.50;;;;;;;;;;5131134;27;20043;-68
2021/05/09 12:46:35;;;;;;;1.08;0.50;;;;;;;;;;5131481;27;20053;-70
2021/05/09 12:49:09;;;;;;;2.65;0.70;;;;;;;;;;5131081;27;20053;-71
2021/05/09 12:51:35;;;;;;;1.30;0.70;;;;;;;;;;5130633;27;20039;-71
2021/05/09 12:54:02;;;;;;;0.32;0.32;;;;;;;;;;5133976;27;20081;-71
2021/05/09 12:56:29;;;;;;;1.48;0.80;;;;;;;;;;5132805;27;20039;-70
2021/05/09 12:59:04;;;;;;;0.82;0.40;;;;;;;;;;5133545;27;20069;-73
2021/05/09 13:01:32;;;;;;;0.65;0.43;;;;;;;;;;5132987;28;20071;-70
2021/05/09 13:03:58;;;;;;;0.90;0.57;;;;;;;;;;5131521;28;20039;-68
2021/05/09 13:06:24;;;;;;;1.17;0.50;;;;;;;;;;5133975;28;20059;-70
2021/05/09 13:08:51;;;;;;;1.30;0.60;;;;;;;;;;5132721;28;20119;-68
2021/05/09 13:11:17;;;;;;;2.58;0.75;;;;;;;;;;5133295;28;20047;-69
2021/05/09 13:13:43;;;;;;;0.85;0.50;;;;;;;;;;5133551;28;20068;-68
2021/05/09 13:16:10;;;;;;;1.20;0.80;;;;;;;;;;5113693;28;20062;-68
2021/05/09 13:18:36;;;;;;;0.50;0.45;;;;;;;;;;5112980;28;20056;-70
2021/05/09 13:21:02;;;;;;;1.65;0.80;;;;;;;;;;5117255;28;20086;-68
2021/05/09 13:23:28;;;;;;;1.80;0.88;;;;;;;;;;5133650;28;20075;-68
2021/05/09 13:25:54;;;;;;;1.60;0.80;;;;;;;;;;5133257;28;20487;-69
2021/05/09 13:28:21;;;;;;;7.45;0.80;;;;;;;;;;5133762;28;20047;-70
2021/05/09 13:30:47;;;;;;;1.15;0.55;;;;;;;;;;5132549;28;20039;-70
2021/05/09 13:33:14;;;;;;;2.13;1.00;;;;;;;;;;5122313;28;20039;-70
2021/05/09 13:35:40;;;;;;;1.13;0.82;;;;;;;;;;5131688;28;20082;-70
2021/05/09 13:38:06;;;;;;;1.73;0.77;;;;;;;;;;5128977;27;20054;-70
2021/05/09 13:40:32;;;;;;;0.88;0.63;;;;;;;;;;5125498;27;20055;-69
2021/05/09 13:42:58;;;;;;;1.50;0.57;;;;;;;;;;5122341;28;20540;-71
2021/05/09 13:45:24;;;;;;;2.17;0.70;;;;;;;;;;5128215;28;20059;-71
2021/05/09 13:47:50;;;;;;;1.48;0.80;;;;;;;;;;5131829;28;20043;-70
2021/05/09 13:50:17;;;;;;;1.05;0.50;;;;;;;;;;5133069;28;20134;-70
2021/05/09 13:52:43;;;;;;;1.02;0.47;;;;;;;;;;5132464;28;20050;-70
2021/05/09 13:55:11;;;;;;;2.05;0.80;;;;;;;;;;5129157;27;20074;-71
2021/05/09 13:57:37;;;;;;;2.90;0.80;;;;;;;;;;5131338;28;20436;-70
2021/05/09 14:00:04;;;;;;;0.82;0.60;;;;;;;;;;5127587;28;20472;-71
2021/05/09 14:02:30;;;;;;;2.22;0.70;;;;;;;;;;5123560;28;20055;-70
2021/05/09 14:04:56;;;;;;;1.42;0.60;;;;;;;;;;5132609;28;20051;-70
2021/05/09 14:07:23;;;;;;;1.27;0.60;;;;;;;;;;5131066;28;20099;-70
2021/05/09 14:09:49;;;;;;;2.55;0.65;;;;;;;;;;5132065;28;20065;-70
2021/05/09 14:12:15;;;;;;;0.88;0.60;;;;;;;;;;5134863;27;20051;-68
2021/05/09 14:14:42;;;;;;;1.83;0.77;;;;;;;;;;5136456;27;20472;-68
2021/05/09 14:17:08;;;;;;;1.15;0.60;;;;;;;;;;5136446;27;20427;-69
2021/05/09 14:19:34;;;;;;;0.98;0.68;;;;;;;;;;5136753;27;20062;-70
2021/05/09 14:22:00;;;;;;;1.33;0.85;;;;;;;;;;5136224;27;20055;-70
2021/05/09 14:24:27;;;;;;;0.65;0.45;;;;;;;;;;5137218;27;20078;-70
2021/05/09 14:26:53;;;;;;;1.45;0.60;;;;;;;;;;5136303;27;20054;-70
2021/05/09 14:29:19;;;;;;;1.67;0.75;;;;;;;;;;5135165;27;20090;-71
2021/05/09 14:31:45;;;;;;;1.55;0.50;;;;;;;;;;5133272;27;20402;-73
2021/05/09 14:34:11;;;;;;;1.08;0.60;;;;;;;;;;5134055;27;20122;-71
2021/05/09 14:36:37;;;;;;;1.20;0.68;;;;;;;;;;5134173;27;20087;-70
2021/05/09 14:39:03;;;;;;;0.93;0.60;;;;;;;;;;5134626;27;20066;-71
2021/05/09 14:41:30;;;;;;;1.27;0.30;;;;;;;;;;5133131;27;20043;-71
2021/05/09 14:43:56;;;;;;;1.17;0.50;;;;;;;;;;5130292;27;20051;-71